Time;durP1;ratioP1;P1;durP2;ratioP2;P2;SDS_P1;SDS_P2;PMS_P1;PMS_P2;Temp;Humidity;BMP_temperature;BMP_pressure;BME280_temperature;BME280_humidity;BME280_pressure;Samples;Min_cycle;Max_cycle;Signal;HPM_P1;HPM_P2
2023/03/24 00:00:45;;;;;;;5.33;4.53;;;13.30;76.30;;;13.46;62.38;97119.09;5082238;28;20461;-75
2023/03/24 00:03:15;;;;;;;5.03;4.30;;;13.20;76.30;;;13.50;62.02;97109.38;5073201;28;20450;-71
2023/03/24 00:05:43;;;;;;;5.50;4.37;;;13.20;76.40;;;13.52;62.22;97122.69;5082477;28;20457;-71
2023/03/24 00:08:12;;;;;;;5.30;4.80;;;13.10;76.50;;;13.38;62.95;97122.22;5091448;28;20464;-70
2023/03/24 00:10:41;;;;;;;5.60;4.53;;;13.10;76.60;;;13.21;63.06;97106.88;5090863;28;20516;-71
2023/03/24 00:13:12;;;;;;;4.50;4.10;;;13.10;76.70;;;13.29;63.11;97113.72;5092387;27;20469;-69
2023/03/24 00:15:40;;;;;;;6.77;4.17;;;13.10;76.80;;;13.35;62.92;97122.75;5075365;28;21786;-70
2023/03/24 00:18:09;;;;;;;5.20;4.70;;;13.10;76.90;;;13.31;62.95;97112.41;5059430;28;20467;-71
2023/03/24 00:20:37;;;;;;;4.70;4.10;;;13.10;76.90;;;13.34;63.13;97105.63;5074484;28;20457;-71
2023/03/24 00:23:04;;;;;;;5.00;4.17;;;13.10;76.90;;;13.42;62.67;97112.50;5078471;28;20444;-69
2023/03/24 00:25:34;;;;;;;6.33;4.67;;;13.10;76.80;;;13.36;63.13;97110.81;5098089;28;20456;-70
2023/03/24 00:28:04;;;;;;;4.23;3.93;;;13.10;76.80;;;13.48;62.68;97107.97;5090110;28;20944;-71
2023/03/24 00:30:34;;;;;;;5.30;3.43;;;13.20;76.80;;;13.38;62.63;97101.34;5087143;28;20960;-70
2023/03/24 00:33:02;;;;;;;4.77;4.27;;;13.20;76.70;;;13.59;62.25;97099.69;5090498;28;20955;-71
2023/03/24 00:35:30;;;;;;;5.53;4.67;;;13.30;76.80;;;13.15;62.59;97037.38;5091042;28;20805;-69
2023/03/24 00:37:58;;;;;;;4.70;4.20;;;13.30;76.80;;;13.48;62.78;97097.13;5073624;28;20482;-72
2023/03/24 00:40:26;;;;;;;5.40;4.33;;;13.20;76.70;;;13.53;62.58;97097.19;5090365;28;20441;-70
2023/03/24 00:42:54;;;;;;;3.93;3.63;;;13.30;76.80;;;13.53;62.55;97081.72;5095416;28;20499;-70
2023/03/24 00:45:22;;;;;;;4.40;4.00;;;13.30;76.60;;;13.55;62.44;97095.84;5106221;28;20869;-70
2023/03/24 00:47:52;;;;;;;4.67;4.27;;;13.30;76.60;;;13.59;62.18;97096.97;5100622;28;20503;-70
2023/03/24 00:50:25;;;;;;;6.00;4.33;;;13.30;76.50;;;13.50;62.42;97101.22;5090422;28;21135;-69
2023/03/24 00:52:53;;;;;;;5.27;4.20;;;13.30;76.50;;;13.61;61.91;97113.00;5073973;28;20448;-69
2023/03/24 00:55:21;;;;;;;4.80;4.30;;;13.40;76.30;;;13.60;62.01;97114.91;5079378;28;20456;-70
2023/03/24 00:57:49;;;;;;;5.90;4.53;;;13.50;76.40;;;13.60;62.71;97098.63;5089474;28;20827;-71
2023/03/24 01:00:20;;;;;;;5.33;4.83;;;13.50;76.60;;;13.54;63.43;97091.50;5105802;28;20508;-70
2023/03/24 01:02:52;;;;;;;5.40;4.30;;;13.50;77.10;;;13.63;64.28;97080.97;5106887;28;20456;-70
2023/03/24 01:05:20;;;;;;;4.53;4.13;;;13.50;77.50;;;13.69;64.40;97079.13;5085964;28;20453;-71
2023/03/24 01:07:50;;;;;;;6.07;4.37;;;13.50;78.20;;;13.35;64.83;97058.47;5111417;27;20465;-72
2023/03/24 01:10:24;;;;;;;4.40;4.00;;;13.50;78.20;;;13.42;65.24;97079.94;5083388;28;20514;-70
2023/03/24 01:12:53;;;;;;;4.50;3.93;;;13.40;78.30;;;13.34;64.97;97072.28;5080377;28;20465;-71
2023/03/24 01:15:25;;;;;;;5.70;4.30;;;13.40;78.50;;;13.45;65.12;97082.19;5095403;27;20497;-72
2023/03/24 01:17:54;;;;;;;3.83;3.53;;;13.30;78.50;;;13.40;66.19;97069.38;5096487;28;20439;-71
2023/03/24 01:20:31;;;;;;;7.13;3.80;;;13.30;79.00;;;13.48;65.81;97076.25;5091451;28;20498;-73
2023/03/24 01:23:08;;;;;;;4.57;4.10;;;13.30;79.20;;;13.26;65.98;97055.38;5093483;28;20960;-72
2023/03/24 01:25:41;;;;;;;4.07;3.67;;;13.30;79.10;;;13.27;66.43;97084.16;5108793;27;20722;-72
2023/03/24 01:28:08;;;;;;;3.93;3.53;;;13.20;79.20;;;13.32;66.36;97086.91;5086212;28;20816;-72
2023/03/24 01:30:36;;;;;;;6.10;4.00;;;13.20;79.50;;;13.30;66.22;97094.50;5079636;28;20470;-72
2023/03/24 01:33:07;;;;;;;3.70;3.33;;;13.20;79.50;;;13.22;66.77;97088.72;5083180;28;20457;-71
2023/03/24 01:35:34;;;;;;;5.90;3.77;;;13.10;79.60;;;13.11;66.54;97077.75;5093604;28;20479;-72
2023/03/24 01:38:05;;;;;;;11.63;4.10;;;13.10;79.70;;;13.06;67.23;97098.56;5090567;28;20448;-70
2023/03/24 01:40:35;;;;;;;4.10;3.80;;;13.00;79.80;;;13.00;68.06;97101.22;5095798;28;20462;-71
2023/03/24 01:43:04;;;;;;;5.23;4.33;;;13.00;80.50;;;12.58;68.32;97028.63;5086737;28;20527;-70
2023/03/24 01:45:55;;;;;;;4.70;4.30;;;13.00;81.10;;;12.83;68.63;97089.66;5094550;28;20948;-70
2023/03/24 01:48:30;;;;;;;5.07;4.00;;;12.90;80.90;;;12.81;69.13;97091.75;5075121;28;20530;-71
2023/03/24 01:51:04;;;;;;;5.90;3.77;;;12.90;81.40;;;12.93;69.16;97108.72;5085192;28;20539;-70
2023/03/24 01:53:36;;;;;;;4.57;4.07;;;12.90;81.60;;;12.90;70.17;97090.25;5093872;28;20450;-70
2023/03/24 01:56:08;;;;;;;7.93;5.50;;;12.80;82.30;;;12.49;71.38;97062.66;5072934;28;20521;-71
2023/03/24 01:58:38;;;;;;;5.40;4.27;;;12.70;82.60;;;12.55;71.52;97061.66;5075485;28;21176;-70
2023/03/24 02:01:06;;;;;;;5.10;4.47;;;12.60;83.10;;;12.68;71.54;97057.75;5074345;28;20470;-71
2023/03/24 02:03:39;;;;;;;5.47;4.57;;;12.60;83.40;;;12.62;71.21;97051.44;5074147;28;20445;-72
2023/03/24 02:06:08;;;;;;;5.13;4.63;;;12.60;83.40;;;12.20;71.92;96971.56;5074339;28;20459;-71
2023/03/24 02:08:41;;;;;;;6.07;4.30;;;12.50;84.00;;;12.58;71.54;97036.75;5077303;28;20513;-70
2023/03/24 02:11:09;;;;;;;6.10;5.17;;;12.50;83.80;;;12.63;71.43;97036.00;5089610;28;20462;-70
2023/03/24 02:13:37;;;;;;;5.77;4.63;;;12.50;83.90;;;12.68;71.82;97026.06;5080820;28;20461;-70
2023/03/24 02:16:21;;;;;;;6.10;5.50;;;12.50;84.60;;;12.63;71.54;97019.75;5070279;28;20546;-70
2023/03/24 02:19:11;;;;;;;4.80;4.40;;;12.50;84.30;;;12.56;71.88;97014.53;5075102;28;20551;-70
2023/03/24 02:22:42;;;;;;;4.83;4.33;;;12.50;84.40;;;12.56;71.52;97009.09;5076581;28;20441;-71
2023/03/24 02:26:02;;;;;;;5.80;4.57;;;12.50;84.30;;;12.63;71.24;96998.06;5076336;28;20458;-71
2023/03/24 02:28:43;;;;;;;5.13;4.63;;;12.50;84.30;;;12.11;72.08;96938.69;5088942;28;20472;-72
2023/03/24 02:31:34;;;;;;;6.50;4.30;;;12.50;84.60;;;12.42;71.71;96987.81;5092777;28;20550;-70
2023/03/24 02:35:12;;;;;;;5.30;4.80;;;12.50;84.30;;;12.53;71.64;96994.16;5088516;28;20502;-70
2023/03/24 02:38:15;;;;;;;6.43;4.40;;;12.50;84.40;;;12.56;72.05;96982.00;5099287;27;20435;-73
2023/03/24 02:40:48;;;;;;;4.40;4.00;;;12.50;84.80;;;12.59;71.52;96973.38;5093343;28;20817;-70
2023/03/24 02:43:37;;;;;;;4.87;4.47;;;12.60;84.50;;;12.66;71.27;96978.59;5088417;28;20444;-72
2023/03/24 02:46:15;;;;;;;4.67;4.27;;;12.60;84.20;;;12.71;71.18;96973.22;5077327;28;20559;-70
2023/03/24 02:48:59;;;;;;;5.90;5.30;;;12.60;84.40;;;12.60;70.96;96967.72;5087477;28;20505;-70
2023/03/24 02:51:33;;;;;;;5.70;5.10;;;12.60;84.00;;;12.65;70.82;96966.94;5085551;28;20938;-70
2023/03/24 02:54:09;;;;;;;4.40;4.00;;;12.60;83.80;;;12.71;70.94;96962.38;5086431;28;20460;-71
2023/03/24 02:56:44;;;;;;;5.53;5.07;;;12.70;83.80;;;12.65;70.65;96953.38;5085031;28;20480;-71
2023/03/24 02:59:18;;;;;;;5.60;5.10;;;12.70;83.80;;;12.70;70.55;96950.75;5090649;28;20570;-70
2023/03/24 03:01:53;;;;;;;5.00;4.50;;;12.60;83.50;;;12.67;70.40;96945.84;5092554;28;20963;-71
2023/03/24 03:04:25;;;;;;;5.33;4.83;;;12.60;83.70;;;12.66;70.21;96933.38;5101407;28;20511;-72
2023/03/24 03:06:57;;;;;;;6.60;5.00;;;12.60;83.70;;;12.81;70.15;96942.69;5110222;28;20500;-72
2023/03/24 03:09:28;;;;;;;6.10;4.87;;;12.60;83.40;;;12.44;69.80;96873.81;5111639;28;20458;-71
2023/03/24 03:11:59;;;;;;;5.30;4.80;;;12.70;83.20;;;12.45;69.48;96888.97;5099809;28;20446;-70
2023/03/24 03:14:34;;;;;;;5.80;4.80;;;12.70;82.90;;;12.85;69.11;96946.53;5110345;27;20457;-71
2023/03/24 03:17:06;;;;;;;5.20;4.53;;;12.80;82.90;;;12.79;69.38;96942.13;5087930;28;20472;-72
2023/03/24 03:19:41;;;;;;;6.17;5.57;;;12.80;82.80;;;12.78;68.93;96935.06;5092491;28;20546;-71
2023/03/24 03:22:16;;;;;;;4.90;4.50;;;12.80;82.40;;;12.71;69.73;96930.69;5083748;28;20454;-70
2023/03/24 03:24:49;;;;;;;5.50;5.00;;;12.80;82.70;;;12.73;69.03;96912.28;5090289;28;20570;-70
2023/03/24 03:27:22;;;;;;;6.47;4.80;;;12.90;82.70;;;13.01;68.61;96937.47;5088849;28;21003;-70
2023/03/24 03:29:54;;;;;;;6.50;5.47;;;12.90;82.50;;;13.00;68.89;96921.47;5081287;28;20459;-71
2023/03/24 03:32:27;;;;;;;8.83;4.77;;;12.90;82.70;;;12.84;68.99;96926.75;5097051;28;20505;-71
2023/03/24 03:35:01;;;;;;;5.33;4.93;;;12.90;82.60;;;12.89;69.39;96926.81;5083836;28;20453;-71
2023/03/24 03:37:35;;;;;;;5.67;5.00;;;12.80;82.80;;;12.93;69.57;96924.38;5100967;28;20452;-71
2023/03/24 03:40:11;;;;;;;5.37;4.97;;;12.80;83.00;;;12.82;69.61;96919.97;5091094;28;21020;-71
2023/03/24 03:42:40;;;;;;;6.33;5.70;;;12.80;82.80;;;12.68;70.11;96914.94;5101572;28;20855;-70
2023/03/24 03:45:11;;;;;;;5.13;4.63;;;12.80;83.00;;;12.94;69.36;96917.88;5096069;28;20543;-71
2023/03/24 03:47:38;;;;;;;5.37;4.97;;;12.80;83.10;;;12.83;69.48;96918.88;5103209;28;20443;-71
2023/03/24 03:50:09;;;;;;;5.83;5.20;;;12.80;83.00;;;12.83;69.98;96916.19;5091284;28;20528;-71
2023/03/24 03:52:40;;;;;;;5.20;4.70;;;12.80;83.10;;;12.80;69.76;96912.06;5095635;28;20564;-71
2023/03/24 03:55:09;;;;;;;6.67;4.77;;;12.80;83.20;;;12.72;70.39;96920.66;5087704;28;20476;-72
2023/03/24 03:57:37;;;;;;;5.97;5.03;;;12.70;83.40;;;12.65;70.62;96915.44;5079777;28;20460;-70
2023/03/24 04:00:10;;;;;;;4.80;4.40;;;12.70;83.50;;;12.61;70.80;96914.31;5077280;28;20452;-72
2023/03/24 04:03:06;;;;;;;5.60;5.10;;;12.70;83.70;;;12.60;71.06;96918.09;5079155;28;20448;-71
2023/03/24 04:05:36;;;;;;;6.33;4.67;;;12.60;83.80;;;12.57;71.29;96926.75;5074915;28;20920;-72
2023/03/24 04:08:27;;;;;;;5.40;4.90;;;12.60;84.10;;;12.63;71.25;96924.91;5082411;28;20460;-74
2023/03/24 04:11:36;;;;;;;5.73;5.13;;;12.60;84.20;;;12.55;71.33;96926.19;5074951;28;21202;-71
2023/03/24 04:14:20;;;;;;;4.90;4.30;;;12.60;84.40;;;12.65;71.39;96917.34;5091280;28;20574;-72
2023/03/24 04:16:59;;;;;;;5.30;4.80;;;12.50;84.30;;;12.58;71.30;96920.25;5081396;28;20471;-73
2023/03/24 04:19:50;;;;;;;5.93;5.33;;;12.50;84.30;;;12.48;71.31;96920.97;5069192;28;20456;-71
2023/03/24 04:22:29;;;;;;;6.17;5.50;;;12.50;84.20;;;12.42;71.54;96911.97;5076088;28;20497;-71
2023/03/24 04:25:08;;;;;;;6.07;5.47;;;12.50;84.50;;;12.55;71.06;96915.34;5105265;27;20815;-72
2023/03/24 04:27:40;;;;;;;6.30;5.70;;;12.50;84.40;;;12.55;70.97;96915.34;5072217;28;20475;-71
2023/03/24 04:30:15;;;;;;;5.53;5.03;;;12.50;84.20;;;12.53;71.28;96922.94;5072464;28;20452;-70
2023/03/24 04:32:48;;;;;;;5.50;5.00;;;12.50;84.20;;;12.58;70.93;96917.56;5088641;28;20472;-70
2023/03/24 04:35:30;;;;;;;5.33;4.83;;;12.50;84.10;;;12.57;70.82;96913.22;5084635;28;20550;-68
2023/03/24 04:38:02;;;;;;;6.00;5.40;;;12.50;84.20;;;12.63;70.67;96917.59;5089278;28;20465;-69
2023/03/24 04:40:33;;;;;;;5.23;4.73;;;12.50;84.10;;;12.53;70.87;96912.09;5086806;28;20444;-68
2023/03/24 04:43:04;;;;;;;5.40;4.90;;;12.50;84.00;;;12.60;70.30;96907.28;5074196;28;20530;-69
2023/03/24 04:45:34;;;;;;;5.00;4.50;;;12.50;83.80;;;12.59;70.21;96916.47;5077046;28;20550;-70
2023/03/24 04:48:07;;;;;;;5.83;5.23;;;12.50;83.70;;;12.40;70.40;96908.69;5083991;28;20468;-70
2023/03/24 04:50:41;;;;;;;8.37;5.30;;;12.50;83.60;;;12.46;70.39;96904.16;5079892;28;20448;-71
2023/03/24 04:53:10;;;;;;;6.07;5.43;;;12.50;83.40;;;12.58;70.06;96907.50;5073507;28;20455;-72
2023/03/24 04:56:08;;;;;;;4.80;4.40;;;12.50;83.50;;;12.64;69.59;96908.38;5070054;28;20467;-70
2023/03/24 04:58:35;;;;;;;5.63;5.13;;;12.50;83.20;;;12.61;69.38;96906.19;5065521;28;20818;-70
2023/03/24 05:01:04;;;;;;;4.90;4.40;;;12.60;83.00;;;12.75;69.30;96912.84;5077212;28;20444;-73
2023/03/24 05:03:36;;;;;;;5.23;4.73;;;12.60;83.00;;;12.87;68.63;96911.88;5079384;28;20488;-72
2023/03/24 05:06:05;;;;;;;5.10;4.60;;;12.70;83.00;;;12.87;68.55;96893.69;5079061;28;20555;-72
2023/03/24 05:08:33;;;;;;;7.10;4.90;;;12.70;82.80;;;12.71;68.31;96892.75;5091226;28;20469;-73
2023/03/24 05:11:00;;;;;;;6.00;4.97;;;12.70;82.30;;;12.79;68.09;96882.50;5076361;28;20931;-70
2023/03/24 05:13:28;;;;;;;4.67;4.27;;;12.70;82.30;;;12.75;68.20;96877.59;5082848;28;20529;-73
2023/03/24 05:15:55;;;;;;;7.17;4.60;;;12.70;82.10;;;12.65;67.63;96855.03;5071860;28;20535;-73
2023/03/24 05:18:22;;;;;;;6.27;4.67;;;12.80;81.90;;;12.96;67.13;96883.19;5092611;28;20922;-71
2023/03/24 05:20:52;;;;;;;5.20;4.30;;;12.80;81.60;;;12.92;67.23;96873.94;5089471;28;20463;-71
2023/03/24 05:23:20;;;;;;;5.80;4.33;;;12.90;81.70;;;12.90;67.61;96895.09;5089539;28;20463;-73
2023/03/24 05:25:48;;;;;;;6.50;4.63;;;12.90;81.60;;;12.94;67.46;96895.38;5100798;28;20875;-71
2023/03/24 05:28:15;;;;;;;5.47;4.97;;;12.90;81.60;;;12.99;67.18;96892.72;5090711;28;20518;-71
2023/03/24 05:30:43;;;;;;;5.60;4.67;;;12.90;81.50;;;12.94;67.13;96885.34;5070510;28;20487;-71
2023/03/24 05:33:10;;;;;;;6.43;4.60;;;12.90;81.30;;;12.88;67.19;96887.19;5084113;28;20451;-70
2023/03/24 05:35:37;;;;;;;5.10;4.60;;;12.90;81.30;;;12.83;67.01;96872.81;5073991;28;20514;-70
2023/03/24 05:38:06;;;;;;;5.00;4.50;;;12.90;81.10;;;12.95;66.79;96880.75;5105511;27;20432;-71
2023/03/24 05:40:33;;;;;;;5.00;4.20;;;12.90;81.10;;;13.01;66.14;96883.25;5066712;28;20469;-69
2023/03/24 05:43:00;;;;;;;5.13;4.43;;;13.00;80.90;;;13.19;66.18;96905.63;5076610;28;20450;-72
2023/03/24 05:45:29;;;;;;;5.33;4.83;;;13.10;81.10;;;13.27;65.63;96905.16;5080781;28;20453;-68
2023/03/24 05:47:56;;;;;;;4.77;4.30;;;13.10;81.00;;;13.28;65.59;96900.53;5086638;28;20535;-69
2023/03/24 05:50:24;;;;;;;7.20;4.83;;;13.20;80.80;;;13.29;65.44;96892.13;5075755;28;22755;-70
2023/03/24 05:52:52;;;;;;;5.10;4.60;;;13.20;80.50;;;13.38;65.31;96910.63;5074900;28;20443;-69
2023/03/24 05:55:21;;;;;;;8.10;4.53;;;13.30;80.50;;;13.53;64.50;96918.09;5087609;28;20457;-70
2023/03/24 05:57:48;;;;;;;5.37;4.47;;;13.30;80.20;;;13.57;64.55;96924.63;5080655;28;20476;-70
2023/03/24 06:00:17;;;;;;;5.27;4.50;;;13.40;80.20;;;13.62;64.82;96926.56;5078975;28;20948;-70
2023/03/24 06:02:45;;;;;;;4.80;4.30;;;13.40;80.30;;;13.56;64.45;96920.28;5076158;28;20481;-70
2023/03/24 06:05:15;;;;;;;4.93;4.43;;;13.40;80.00;;;13.58;65.00;96927.09;5077351;28;20463;-72
2023/03/24 06:07:43;;;;;;;4.50;4.10;;;13.40;80.20;;;13.63;64.93;96936.34;5075518;28;20536;-69
2023/03/24 06:10:13;;;;;;;5.07;4.37;;;13.40;80.40;;;13.82;64.14;96923.97;5086952;28;20859;-71
2023/03/24 06:12:42;;;;;;;7.97;5.17;;;13.50;80.40;;;13.95;63.94;96930.81;5078188;28;20449;-72
2023/03/24 06:15:16;;;;;;;6.60;5.13;;;13.60;80.30;;;13.97;63.88;96915.09;5090287;27;20459;-70
2023/03/24 06:17:46;;;;;;;6.03;5.17;;;13.60;80.20;;;13.98;63.39;96903.16;5074353;28;20483;-69
2023/03/24 06:20:16;;;;;;;4.87;4.37;;;13.70;80.20;;;14.11;63.38;96922.75;5083290;28;20465;-73
2023/03/24 06:22:46;;;;;;;5.63;5.00;;;13.80;80.20;;;14.10;63.38;96908.34;5078291;28;20452;-69
2023/03/24 06:25:18;;;;;;;5.80;4.63;;;13.80;79.80;;;14.23;62.21;96911.66;5082667;28;20465;-69
2023/03/24 06:27:48;;;;;;;6.00;5.40;;;13.90;79.30;;;14.31;62.49;96898.38;5120994;27;20463;-70
2023/03/24 06:30:17;;;;;;;5.73;5.13;;;14.00;79.40;;;14.38;62.17;96917.13;5092864;28;20454;-70
2023/03/24 06:32:46;;;;;;;5.47;4.97;;;14.00;79.40;;;14.30;62.05;96915.75;5091055;28;20450;-69
2023/03/24 06:35:15;;;;;;;5.50;5.00;;;14.00;79.30;;;14.36;61.95;96923.91;5075636;28;20457;-70
2023/03/24 06:37:43;;;;;;;7.57;4.57;;;14.00;79.10;;;14.33;62.47;96938.88;5090609;28;20786;-70
2023/03/24 06:40:14;;;;;;;5.23;4.70;;;14.00;79.20;;;14.33;61.99;96938.03;5094571;28;20519;-70
2023/03/24 06:42:42;;;;;;;5.50;5.00;;;13.90;79.20;;;14.43;61.73;96955.19;5099411;28;20560;-68
2023/03/24 06:45:13;;;;;;;5.40;4.80;;;14.00;79.10;;;14.70;63.27;96956.91;5097928;28;20490;-69
2023/03/24 06:47:40;;;;;;;5.10;4.60;;;14.10;80.60;;;14.69;61.11;96960.72;5090632;28;20457;-69
2023/03/24 06:50:09;;;;;;;7.03;4.93;;;14.30;79.10;;;14.53;61.74;96978.06;5092249;28;20459;-70
2023/03/24 06:52:36;;;;;;;6.00;4.87;;;14.20;78.90;;;14.50;61.50;96992.19;5109769;28;20471;-69
2023/03/24 06:55:04;;;;;;;5.40;4.90;;;14.20;78.60;;;14.42;62.07;96993.50;5092658;28;20444;-68
2023/03/24 06:57:32;;;;;;;4.93;4.07;;;14.20;78.90;;;14.42;61.82;96991.59;5100562;28;20463;-69
2023/03/24 07:00:00;;;;;;;5.77;5.13;;;14.10;78.80;;;14.45;61.84;96979.38;5092243;28;20497;-69
2023/03/24 07:02:33;;;;;;;4.47;4.07;;;14.10;79.20;;;14.87;61.95;97002.09;5078913;28;20450;-69
2023/03/24 07:05:04;;;;;;;8.77;6.37;;;14.30;79.40;;;15.26;61.40;96998.09;5088378;28;20449;-69
2023/03/24 07:07:32;;;;;;;5.43;4.57;;;14.60;79.50;;;15.17;60.49;97003.25;5082193;28;20522;-69
2023/03/24 07:10:01;;;;;;;5.33;4.80;;;14.80;78.60;;;15.10;60.36;97011.66;5079755;28;20932;-68
2023/03/24 07:12:28;;;;;;;4.97;4.57;;;14.80;78.50;;;14.91;61.55;97021.44;5059681;28;21627;-67
2023/03/24 07:14:55;;;;;;;5.33;4.83;;;14.70;78.50;;;14.88;61.66;97017.34;5084596;28;20476;-68
2023/03/24 07:17:25;;;;;;;4.63;4.27;;;14.60;78.60;;;14.45;60.75;96950.28;5077588;28;20726;-70
2023/03/24 07:19:55;;;;;;;6.07;5.23;;;14.70;78.40;;;14.87;61.40;97023.84;5077735;28;20481;-69
2023/03/24 07:22:22;;;;;;;8.70;5.20;;;14.60;78.30;;;14.86;61.46;97027.66;5092179;28;20794;-71
2023/03/24 07:24:50;;;;;;;5.23;4.50;;;14.70;78.30;;;14.93;61.19;97019.25;5085702;28;20456;-68
2023/03/24 07:27:17;;;;;;;7.80;4.40;;;14.70;78.30;;;14.60;61.62;97022.09;5079771;28;20452;-69
2023/03/24 07:29:44;;;;;;;7.60;4.50;;;14.60;78.00;;;14.83;61.40;97020.03;5083303;28;20933;-69
2023/03/24 07:32:12;;;;;;;7.17;4.47;;;14.60;78.50;;;14.77;61.98;97018.38;5084171;28;20499;-70
2023/03/24 07:34:40;;;;;;;4.83;4.23;;;14.60;78.40;;;14.54;62.37;97017.75;5110300;27;20564;-71
2023/03/24 07:37:08;;;;;;;4.50;3.77;;;14.50;78.40;;;14.35;63.30;97029.06;5075560;28;20483;-70
2023/03/24 07:39:35;;;;;;;3.90;3.30;;;14.40;78.90;;;14.26;63.67;97027.94;5069983;28;20449;-71
2023/03/24 07:42:03;;;;;;;3.53;3.20;;;14.20;79.20;;;14.37;63.46;97029.63;5070350;28;21007;-71
2023/03/24 07:44:30;;;;;;;3.10;2.70;;;14.20;79.40;;;14.40;63.39;97020.94;5081359;28;20540;-73
2023/03/24 07:46:57;;;;;;;2.47;2.27;;;14.20;79.40;;;14.36;63.78;97027.16;5079565;28;20468;-71
2023/03/24 07:49:26;;;;;;;2.30;2.10;;;14.20;79.60;;;14.55;63.39;97025.59;5069691;28;20540;-69
2023/03/24 07:51:53;;;;;;;2.63;2.43;;;14.30;79.50;;;14.26;63.90;97027.94;5077751;28;20715;-70
2023/03/24 07:54:22;;;;;;;2.80;2.60;;;14.30;79.60;;;14.40;63.60;97029.09;5065949;28;20488;-71
2023/03/24 07:56:49;;;;;;;2.67;2.43;;;14.20;79.70;;;14.22;63.91;97026.84;5069992;28;20483;-68
2023/03/24 07:59:17;;;;;;;2.90;2.70;;;14.30;79.60;;;14.22;63.85;97024.91;5071782;28;20521;-68
2023/03/24 08:01:44;;;;;;;3.20;2.90;;;14.30;79.60;;;14.66;62.96;97018.34;5070520;28;21052;-70
2023/03/24 08:04:13;;;;;;;2.63;2.43;;;14.30;79.60;;;14.63;62.80;97027.00;5080687;28;20819;-70
2023/03/24 08:06:42;;;;;;;2.47;2.27;;;14.40;79.30;;;14.59;63.20;97020.47;5084392;28;20509;-69
2023/03/24 08:09:10;;;;;;;3.00;2.23;;;14.40;79.20;;;14.68;62.43;97008.00;5090438;28;20512;-68
2023/03/24 08:11:40;;;;;;;2.80;2.60;;;14.50;79.30;;;14.55;63.55;97005.78;5081573;28;20535;-68
2023/03/24 08:14:07;;;;;;;3.00;2.40;;;14.40;79.40;;;14.72;63.08;97003.69;5082399;28;20457;-67
2023/03/24 08:16:34;;;;;;;2.47;2.27;;;14.40;79.50;;;14.85;62.48;97012.44;5089496;28;20501;-68
2023/03/24 08:19:02;;;;;;;2.53;2.10;;;14.60;79.30;;;14.77;62.09;97007.50;5090813;28;20905;-70
2023/03/24 08:21:29;;;;;;;2.90;2.00;;;14.60;79.00;;;14.60;62.93;97016.66;5078363;28;20545;-69
2023/03/24 08:23:56;;;;;;;1.83;1.67;;;14.50;79.10;;;14.78;62.40;97011.84;5083909;28;20454;-68
2023/03/24 08:26:25;;;;;;;2.07;1.60;;;14.50;79.10;;;14.98;61.99;97011.94;5087721;28;20449;-68
2023/03/24 08:28:54;;;;;;;1.80;1.70;;;14.70;79.10;;;14.80;62.90;97020.59;5089875;28;20485;-69
2023/03/24 08:31:21;;;;;;;2.07;1.90;;;14.60;79.20;;;14.97;62.01;97021.19;5078327;28;20458;-68
2023/03/24 08:33:49;;;;;;;1.87;1.67;;;14.70;78.90;;;14.78;62.54;97023.56;5087389;28;20473;-68
2023/03/24 08:36:16;;;;;;;2.60;1.63;;;14.70;78.90;;;14.75;62.61;97028.72;5093181;28;20466;-69
2023/03/24 08:38:43;;;;;;;1.73;1.63;;;14.70;79.10;;;14.79;63.06;97030.63;5098007;28;20536;-69
2023/03/24 08:41:10;;;;;;;1.93;1.73;;;14.60;79.10;;;15.00;62.72;97036.94;5097227;28;20946;-67
2023/03/24 08:43:40;;;;;;;2.30;2.10;;;14.70;79.50;;;15.01;62.39;97035.88;5079849;28;20475;-69
2023/03/24 08:46:09;;;;;;;2.60;2.40;;;14.70;79.40;;;14.91;63.45;97032.31;5075317;28;20461;-68
2023/03/24 08:48:39;;;;;;;3.90;1.97;;;14.70;79.90;;;14.78;64.95;97048.03;5087616;28;20484;-68
2023/03/24 08:51:12;;;;;;;2.67;2.47;;;14.60;80.40;;;14.62;66.22;97049.81;5079726;28;20806;-68
2023/03/24 08:53:40;;;;;;;2.57;2.37;;;14.50;81.20;;;14.87;65.11;97048.31;5077057;28;20473;-71
2023/03/24 08:56:08;;;;;;;2.70;2.50;;;14.60;81.00;;;14.54;67.14;97050.34;5081445;28;21033;-68
2023/03/24 08:58:35;;;;;;;2.30;2.20;;;14.50;81.60;;;14.56;67.03;97043.56;5084468;28;20472;-70
2023/03/24 09:01:02;;;;;;;3.20;2.40;;;14.50;82.00;;;14.49;67.56;97058.50;5074766;28;20912;-68
2023/03/24 09:03:31;;;;;;;2.30;2.10;;;14.40;82.40;;;14.48;69.10;97052.22;5076947;28;20925;-68
2023/03/24 09:05:58;;;;;;;2.30;2.10;;;14.30;83.10;;;14.46;69.44;97051.69;5085217;28;20462;-67
2023/03/24 09:08:26;;;;;;;4.27;2.47;;;14.40;83.90;;;14.11;70.06;97056.63;5077213;28;20457;-68
2023/03/24 09:10:53;;;;;;;6.47;2.87;;;14.20;83.80;;;14.06;70.73;97067.47;5098344;28;20452;-67
2023/03/24 09:13:21;;;;;;;2.53;2.33;;;14.10;84.80;;;14.05;71.44;97060.41;5084008;28;20838;-67
2023/03/24 09:15:50;;;;;;;2.80;2.60;;;14.00;85.00;;;13.89;71.46;97029.59;5080151;28;20464;-68
2023/03/24 09:18:19;;;;;;;3.10;2.80;;;14.00;85.50;;;13.95;72.01;97065.75;5080400;28;20549;-69
2023/03/24 09:20:47;;;;;;;2.80;2.47;;;13.90;86.50;;;13.80;73.12;97064.56;5082984;28;20886;-68
2023/03/24 09:23:15;;;;;;;4.13;3.30;;;13.80;87.00;;;13.72;74.35;97056.88;5077768;28;20469;-69
2023/03/24 09:25:42;;;;;;;3.03;2.80;;;13.80;88.40;;;13.72;74.44;97068.59;5082857;28;20530;-69
2023/03/24 09:28:10;;;;;;;3.17;2.90;;;13.70;89.20;;;13.79;74.63;97065.66;5105913;28;20506;-68
2023/03/24 09:30:37;;;;;;;3.27;2.73;;;13.70;89.50;;;13.52;76.05;97061.09;5090552;28;20539;-68
2023/03/24 09:33:05;;;;;;;7.80;3.30;;;13.60;90.10;;;13.66;75.94;97047.91;5082402;28;20424;-68
2023/03/24 09:35:32;;;;;;;3.23;3.00;;;13.60;90.60;;;13.31;76.71;97057.31;5106321;27;20456;-69
2023/03/24 09:38:01;;;;;;;3.83;3.43;;;13.40;90.60;;;13.14;78.28;97046.59;5104837;27;20467;-68
2023/03/24 09:40:31;;;;;;;3.60;3.30;;;13.20;91.70;;;13.48;77.42;97015.72;5100059;27;20457;-69
2023/03/24 09:43:04;;;;;;;3.27;3.03;;;13.30;92.00;;;13.53;78.14;96986.75;5079622;28;20566;-69
2023/03/24 09:45:36;;;;;;;4.97;4.10;;;13.40;92.50;;;13.55;78.75;97030.72;5080194;28;20474;-70
2023/03/24 09:48:09;;;;;;;3.83;3.43;;;13.50;93.00;;;13.74;77.08;97057.47;5090888;28;20444;-69
2023/03/24 09:50:43;;;;;;;3.90;3.60;;;13.60;92.30;;;14.13;76.33;97040.09;5094225;28;20468;-67
2023/03/24 09:53:33;;;;;;;3.80;3.40;;;13.90;92.10;;;14.65;74.10;97043.88;5087385;28;20461;-67
2023/03/24 09:56:11;;;;;;;4.33;3.93;;;14.20;91.60;;;14.66;74.59;97042.81;5077037;28;20441;-68
2023/03/24 09:58:40;;;;;;;3.70;3.40;;;14.40;91.30;;;14.63;74.57;97034.34;5078375;28;20481;-67
2023/03/24 10:01:13;;;;;;;4.43;3.70;;;14.50;90.70;;;14.44;74.35;97024.75;5086161;28;20447;-67
2023/03/24 10:03:41;;;;;;;4.50;3.43;;;14.40;90.30;;;14.58;74.54;97035.97;5095769;27;20954;-68
2023/03/24 10:06:17;;;;;;;4.73;4.23;;;14.50;90.70;;;14.86;73.94;97049.41;5073223;28;20509;-68
2023/03/24 10:08:51;;;;;;;5.10;3.73;;;14.60;90.60;;;15.13;72.95;97046.50;5068763;28;20530;-68
2023/03/24 10:11:29;;;;;;;5.17;4.50;;;14.70;90.20;;;15.13;73.64;97053.84;5080017;28;20465;-68
2023/03/24 10:14:10;;;;;;;4.07;3.77;;;14.90;90.10;;;15.74;70.60;97044.09;5087745;27;20468;-69
2023/03/24 10:16:48;;;;;;;4.53;3.90;;;15.30;89.50;;;15.31;71.90;97052.50;5077132;28;20722;-68
2023/03/24 10:19:26;;;;;;;3.73;3.33;;;15.30;88.40;;;15.17;70.89;97056.84;5085789;28;21018;-68
2023/03/24 10:22:02;;;;;;;3.70;3.40;;;15.10;87.10;;;15.42;71.30;97053.34;5080193;28;20462;-67
2023/03/24 10:24:37;;;;;;;3.00;2.80;;;15.20;87.90;;;15.54;69.82;97029.41;5086421;28;20452;-68
2023/03/24 10:27:12;;;;;;;3.60;3.03;;;15.40;87.00;;;15.04;69.91;97023.63;5091539;28;20475;-68
2023/03/24 10:29:41;;;;;;;4.13;2.43;;;15.40;86.10;;;15.66;68.30;97042.75;5095487;28;20833;-68
2023/03/24 10:32:18;;;;;;;3.80;2.53;;;15.40;85.90;;;16.00;68.47;97049.56;5101284;28;20540;-68
2023/03/24 10:34:51;;;;;;;3.33;3.03;;;15.50;86.50;;;15.72;69.12;97047.09;5109283;28;20567;-68
2023/03/24 10:37:18;;;;;;;3.43;3.13;;;15.50;86.40;;;15.41;69.91;97040.84;5110960;28;20450;-69
2023/03/24 10:39:47;;;;;;;3.33;3.03;;;15.30;86.50;;;15.84;68.73;97038.63;5101872;28;21251;-68